Clayton, Texas
Current Conditions -  °F | °C
As of 4:15 PM on Friday 24 Oct 2014 (Local Time) from KRFI Reporting Station
Clear Clear  
Wind Chill: 78°   Ceiling: Unl
Heat Index: 79°   Visibility: 10mi
Dew Point: 55°   Wind: 0mph
Humidity: 45%   Direction: NA
Pressure: 30.12"   Gusts: NA
Location:  32.1°N, 94.48°W
Report Text: KRFI 242115Z AUTO 00000KT 10SM CLR 26/13 A3012 RMK AO2 T02550129
Loading
Personal Weather Stations






























Interactive Weather Map
Tropical Storm Tracking
New forecast layout! Learn more

10-Day Weather Forecast

Advertisements
Track Severe Weather on mobile